Friday, November 15, 2019, 6:45 PM EST
Back to Local

KBDR, Sikorsky Memorial Airport

Location: Stratford, CT, United States Lat: 41.167
Local Time: 6:45 PM EST (23:45 GMT) Lon: -73.133
Time Zone: US/Eastern Elev: 9 ft

Show me the last for .
Show Coded

Time T Td Feel RH Dir Speed Gust Alt SLP Vis Weather Sky Remarks
2019-11-15 17:52 47 30 44 51 270° 7 - 30.13 30.13 10 CLR None
2019-11-15 16:52 49 33 47 54 250° 6 - 30.11 30.11 10 CLR None
2019-11-15 15:52 50 31 46 47 230° 12 - 30.10 30.10 10 CLR None
2019-11-15 14:52 50 30 45 45 230° 14 - 30.10 30.10 10 CLR None
2019-11-15 13:52 51 30 - 44 230° 14 - 30.12 30.11 10 CLR None
2019-11-15 12:52 50 28 45 42 220° 15 - 30.13 30.13 10 CLR 6-hr Min Temp (1pm): 34.0°F
6-hr Max Temp (1pm): 50.0°F
2019-11-15 11:52 49 26 44 40 230° 13 - 30.16 30.15 10 CLR None
2019-11-15 10:52 48 25 43 40 230° 10 - 30.19 30.19 10 CLR None
2019-11-15 09:52 46 26 41 45 240° 10 - 30.21 30.21 10 CLR None
2019-11-15 08:52 42 25 37 50 250° 9 - 30.23 30.23 10 CLR None
2019-11-15 07:52 38 27 33 64 270° 7 - 30.24 30.24 10 CLR None
2019-11-15 06:52 34 25 30 69 260° 5 - 30.24 30.24 10 CLR 6-hr Min Temp (7am): 32.0°F
6-hr Max Temp (7am): 41.0°F
2019-11-15 05:52 33 24 - 69 - Calm - 30.23 30.23 10 CLR None
2019-11-15 04:52 36 25 32 63 260° 5 - 30.23 30.23 10 CLR None
2019-11-15 03:52 37 26 33 64 250° 5 - 30.23 30.23 10 CLR None
2019-11-15 02:52 39 24 34 54 260° 7 - 30.24 30.24 10 CLR None
2019-11-15 01:52 40 25 36 54 270° 6 - 30.26 30.26 10 CLR None
2019-11-15 00:52 41 25 38 52 260° 5 - 30.27 30.27 10 CLR 6-hr Min Temp (1am): 39.9°F
6-hr Max Temp (1am): 46.0°F
2019-11-14 23:52 42 25 37 50 280° 8 - 30.29 30.28 10 FEW120 24-hr Min Temp (12am): 24.1°F
24-hr Max Temp (12am): 46.0°F
2019-11-14 22:52 42 26 38 52 260° 7 - 30.29 30.29 10 CLR None
2019-11-14 21:52 40 26 37 57 300° 5 - 30.29 30.29 10 CLR None
2019-11-14 20:52 46 27 41 47 240° 12 - 30.29 30.29 10 CLR None
2019-11-14 19:52 46 28 40 49 230° 15 - 30.29 30.29 10 CLR None
2019-11-14 18:52 46 35 40 65 220° 15 - 30.30 30.30 10 FEW032 6-hr Min Temp (7pm): 41.0°F
6-hr Max Temp (7pm): 46.0°F

Support USWX by starting your Amazon purchase here.